sensor_id;sensor_type;location;lat;lon;timestamp;pressure;altitude;pressure_sealevel;temperature;humidity
66857;BME280;53766;50.280;19.160;2023-04-21T00:00:08;98613.41;;;18.14;50.58
66857;BME280;53766;50.280;19.160;2023-04-21T00:02:56;98604.78;;;18.12;50.62
66857;BME280;53766;50.280;19.160;2023-04-21T00:05:24;98611.78;;;18.13;50.62
66857;BME280;53766;50.280;19.160;2023-04-21T00:07:52;98602.13;;;18.12;50.61
66857;BME280;53766;50.280;19.160;2023-04-21T00:10:19;98602.97;;;18.12;50.40
66857;BME280;53766;50.280;19.160;2023-04-21T00:12:47;98599.47;;;18.12;50.88
66857;BME280;53766;50.280;19.160;2023-04-21T00:15:15;98595.16;;;18.11;50.60
66857;BME280;53766;50.280;19.160;2023-04-21T00:17:42;98604.78;;;18.12;50.51
66857;BME280;53766;50.280;19.160;2023-04-21T00:20:10;98596.19;;;18.09;50.59
66857;BME280;53766;50.280;19.160;2023-04-21T00:22:38;98594.53;;;18.08;50.49
66857;BME280;53766;50.280;19.160;2023-04-21T00:25:06;98596.19;;;18.09;50.57
66857;BME280;53766;50.280;19.160;2023-04-21T00:27:33;98594.53;;;18.08;50.69
66857;BME280;53766;50.280;19.160;2023-04-21T00:30:00;98593.72;;;18.08;50.39
66857;BME280;53766;50.280;19.160;2023-04-21T00:32:28;98592.91;;;18.07;50.42
66857;BME280;53766;50.280;19.160;2023-04-21T00:34:56;98599.88;;;18.08;50.48
66857;BME280;53766;50.280;19.160;2023-04-21T00:37:23;98595.56;;;18.07;50.48
66857;BME280;53766;50.280;19.160;2023-04-21T00:39:51;98596.56;;;18.06;50.59
66857;BME280;53766;50.280;19.160;2023-04-21T00:42:18;98593.91;;;18.06;50.56
66857;BME280;53766;50.280;19.160;2023-04-21T00:44:45;98601.09;;;18.06;50.52
66857;BME280;53766;50.280;19.160;2023-04-21T00:47:13;98594.94;;;18.05;50.57
66857;BME280;53766;50.280;19.160;2023-04-21T00:49:40;98599.25;;;18.06;50.60
66857;BME280;53766;50.280;19.160;2023-04-21T00:52:08;98594.09;;;18.05;50.65
66857;BME280;53766;50.280;19.160;2023-04-21T00:54:36;98594.09;;;18.05;50.64
66857;BME280;53766;50.280;19.160;2023-04-21T00:57:03;98598.63;;;18.04;50.61
66857;BME280;53766;50.280;19.160;2023-04-21T00:59:31;98592.47;;;18.04;50.49
66857;BME280;53766;50.280;19.160;2023-04-21T01:01:58;98587.97;;;18.04;50.64
66857;BME280;53766;50.280;19.160;2023-04-21T01:04:27;98591.66;;;18.03;50.57
66857;BME280;53766;50.280;19.160;2023-04-21T01:06:55;98597.00;;;18.03;50.56
66857;BME280;53766;50.280;19.160;2023-04-21T01:09:22;98596.16;;;18.03;50.62
66857;BME280;53766;50.280;19.160;2023-04-21T01:12:09;98595.31;;;18.02;50.49
66857;BME280;53766;50.280;19.160;2023-04-21T01:14:41;98595.31;;;18.02;50.57
66857;BME280;53766;50.280;19.160;2023-04-21T01:17:09;98595.31;;;18.02;50.49
66857;BME280;53766;50.280;19.160;2023-04-21T01:19:40;98593.69;;;18.01;50.33
66857;BME280;53766;50.280;19.160;2023-04-21T01:22:09;98601.69;;;18.01;50.45
66857;BME280;53766;50.280;19.160;2023-04-21T01:27:11;98592.88;;;18.01;50.53
66857;BME280;53766;50.280;19.160;2023-04-21T01:29:40;98600.03;;;18.00;50.52
66857;BME280;53766;50.280;19.160;2023-04-21T01:32:12;98597.38;;;18.00;50.54
66857;BME280;53766;50.280;19.160;2023-04-21T01:34:40;98601.06;;;17.99;50.40
66857;BME280;53766;50.280;19.160;2023-04-21T01:37:09;98598.41;;;17.99;50.64
66857;BME280;53766;50.280;19.160;2023-04-21T01:39:41;98594.91;;;17.99;50.53
66857;BME280;53766;50.280;19.160;2023-04-21T01:42:10;98596.75;;;17.98;50.38
66857;BME280;53766;50.280;19.160;2023-04-21T01:44:38;98591.41;;;17.98;50.36
66857;BME280;53766;50.280;19.160;2023-04-21T01:47:06;98587.94;;;17.98;50.43
66857;BME280;53766;50.280;19.160;2023-04-21T01:49:34;98593.25;;;17.98;50.48
66857;BME280;53766;50.280;19.160;2023-04-21T01:52:01;98592.44;;;17.97;50.37
66857;BME280;53766;50.280;19.160;2023-04-21T01:54:29;98598.78;;;17.96;50.42
66857;BME280;53766;50.280;19.160;2023-04-21T01:56:56;98594.47;;;17.95;50.48
66857;BME280;53766;50.280;19.160;2023-04-21T01:59:24;98591.81;;;17.95;50.27
66857;BME280;53766;50.280;19.160;2023-04-21T02:01:52;98600.00;;;17.94;50.49
66857;BME280;53766;50.280;19.160;2023-04-21T02:04:20;98592.81;;;17.94;50.51
66857;BME280;53766;50.280;19.160;2023-04-21T02:06:47;98591.19;;;17.93;50.36
66857;BME280;53766;50.280;19.160;2023-04-21T02:09:15;98594.66;;;17.94;50.37
66857;BME280;53766;50.280;19.160;2023-04-21T02:11:42;98594.88;;;17.92;50.50
66857;BME280;53766;50.280;19.160;2023-04-21T02:14:10;98593.22;;;17.91;50.42
66857;BME280;53766;50.280;19.160;2023-04-21T02:16:37;98598.56;;;17.91;50.40
66857;BME280;53766;50.280;19.160;2023-04-21T02:19:05;98590.56;;;17.91;50.28
66857;BME280;53766;50.280;19.160;2023-04-21T02:21:32;98590.56;;;17.91;50.30
66857;BME280;53766;50.280;19.160;2023-04-21T02:24:00;98586.25;;;17.90;50.39
66857;BME280;53766;50.280;19.160;2023-04-21T02:26:27;98594.25;;;17.90;50.17
66857;BME280;53766;50.280;19.160;2023-04-21T02:28:55;98582.97;;;17.88;50.25
66857;BME280;53766;50.280;19.160;2023-04-21T02:31:22;98589.13;;;17.88;50.19
66857;BME280;53766;50.280;19.160;2023-04-21T02:33:49;98603.25;;;17.89;50.36
66857;BME280;53766;50.280;19.160;2023-04-21T02:36:17;98593.63;;;17.88;50.25
66857;BME280;53766;50.280;19.160;2023-04-21T02:38:45;98596.28;;;17.88;50.25
66857;BME280;53766;50.280;19.160;2023-04-21T02:41:12;98597.28;;;17.87;50.18
66857;BME280;53766;50.280;19.160;2023-04-21T02:43:40;98594.63;;;17.87;50.24
66857;BME280;53766;50.280;19.160;2023-04-21T02:46:08;98602.63;;;17.87;50.30
66857;BME280;53766;50.280;19.160;2023-04-21T02:48:36;98601.00;;;17.86;50.25
66857;BME280;53766;50.280;19.160;2023-04-21T02:51:03;98604.66;;;17.85;50.16
66857;BME280;53766;50.280;19.160;2023-04-21T02:53:31;98595.84;;;17.84;50.15
66857;BME280;53766;50.280;19.160;2023-04-21T02:55:58;98598.53;;;17.84;50.13
66857;BME280;53766;50.280;19.160;2023-04-21T02:58:28;98589.72;;;17.84;50.17
66857;BME280;53766;50.280;19.160;2023-04-21T03:00:56;98589.72;;;17.84;50.12
66857;BME280;53766;50.280;19.160;2023-04-21T03:03:24;98595.22;;;17.82;50.20
66857;BME280;53766;50.280;19.160;2023-04-21T03:05:56;98598.72;;;17.83;50.11
66857;BME280;53766;50.280;19.160;2023-04-21T03:08:24;98589.09;;;17.82;50.29
66857;BME280;53766;50.280;19.160;2023-04-21T03:10:51;98593.56;;;17.81;50.12
66857;BME280;53766;50.280;19.160;2023-04-21T03:13:19;98576.72;;;17.81;50.01
66857;BME280;53766;50.280;19.160;2023-04-21T03:15:47;98576.72;;;17.81;50.09
66857;BME280;53766;50.280;19.160;2023-04-21T03:18:15;98584.94;;;17.79;50.04
66857;BME280;53766;50.280;19.160;2023-04-21T03:20:42;98583.09;;;17.80;50.07
66857;BME280;53766;50.280;19.160;2023-04-21T03:23:10;98585.75;;;17.80;50.01
66857;BME280;53766;50.280;19.160;2023-04-21T03:25:37;98592.09;;;17.79;50.09
66857;BME280;53766;50.280;19.160;2023-04-21T03:28:05;98592.09;;;17.79;49.94
66857;BME280;53766;50.280;19.160;2023-04-21T03:30:32;98589.44;;;17.79;50.03
66857;BME280;53766;50.280;19.160;2023-04-21T03:33:00;98595.78;;;17.78;49.91
66857;BME280;53766;50.280;19.160;2023-04-21T03:35:27;98598.44;;;17.78;49.87
66857;BME280;53766;50.280;19.160;2023-04-21T03:37:55;98596.78;;;17.77;50.02
66857;BME280;53766;50.280;19.160;2023-04-21T03:40:22;98592.50;;;17.76;49.91
66857;BME280;53766;50.280;19.160;2023-04-21T03:42:49;98595.97;;;17.76;50.00
66857;BME280;53766;50.280;19.160;2023-04-21T03:45:17;98599.66;;;17.75;49.88
66857;BME280;53766;50.280;19.160;2023-04-21T03:47:52;98591.47;;;17.77;49.91
66857;BME280;53766;50.280;19.160;2023-04-21T03:50:20;98609.09;;;17.78;49.97
66857;BME280;53766;50.280;19.160;2023-04-21T03:52:48;98602.13;;;17.77;49.90
66857;BME280;53766;50.280;19.160;2023-04-21T03:55:16;98603.78;;;17.78;49.93
66857;BME280;53766;50.280;19.160;2023-04-21T03:57:43;98603.78;;;17.78;50.05
66857;BME280;53766;50.280;19.160;2023-04-21T04:00:11;98611.78;;;17.78;50.17
66857;BME280;53766;50.280;19.160;2023-04-21T04:02:40;98615.44;;;17.77;50.12
66857;BME280;53766;50.280;19.160;2023-04-21T04:05:07;98616.06;;;17.79;50.12
66857;BME280;53766;50.280;19.160;2023-04-21T04:07:35;98615.44;;;17.77;50.14
66857;BME280;53766;50.280;19.160;2023-04-21T04:10:03;98624.47;;;17.76;50.13
66857;BME280;53766;50.280;19.160;2023-04-21T04:12:31;98625.09;;;17.78;49.98
66857;BME280;53766;50.280;19.160;2023-04-21T04:14:58;98624.06;;;17.79;50.00
66857;BME280;53766;50.280;19.160;2023-04-21T04:17:25;98632.91;;;17.79;50.12
66857;BME280;53766;50.280;19.160;2023-04-21T04:19:53;98627.56;;;17.79;50.02
66857;BME280;53766;50.280;19.160;2023-04-21T04:22:20;98625.09;;;17.78;50.04
66857;BME280;53766;50.280;19.160;2023-04-21T04:24:48;98629.38;;;17.79;50.28
66857;BME280;53766;50.280;19.160;2023-04-21T04:27:15;98636.19;;;17.81;50.09
66857;BME280;53766;50.280;19.160;2023-04-21T04:29:43;98641.97;;;17.85;49.89
66857;BME280;53766;50.280;19.160;2023-04-21T04:32:12;98631.75;;;17.88;49.75
66857;BME280;53766;50.280;19.160;2023-04-21T04:34:41;98648.56;;;17.89;49.96
66857;BME280;53766;50.280;19.160;2023-04-21T04:37:09;98635.09;;;17.97;49.58
66857;BME280;53766;50.280;19.160;2023-04-21T04:39:37;98631.63;;;18.03;49.38
66857;BME280;53766;50.280;19.160;2023-04-21T04:42:08;98644.19;;;18.09;49.21
66857;BME280;53766;50.280;19.160;2023-04-21T04:44:36;98639.66;;;18.10;49.21
66857;BME280;53766;50.280;19.160;2023-04-21T04:47:03;98644.00;;;18.18;48.99
66857;BME280;53766;50.280;19.160;2023-04-21T04:49:31;98634.00;;;18.26;48.67
66857;BME280;53766;50.280;19.160;2023-04-21T04:51:58;98634.44;;;18.30;48.71
66857;BME280;53766;50.280;19.160;2023-04-21T04:54:27;98636.94;;;18.38;48.72
66857;BME280;53766;50.280;19.160;2023-04-21T04:56:55;98640.88;;;18.56;48.00
66857;BME280;53766;50.280;19.160;2023-04-21T04:59:24;98635.00;;;18.74;47.83
66857;BME280;53766;50.280;19.160;2023-04-21T05:01:51;98648.19;;;18.88;47.62
66857;BME280;53766;50.280;19.160;2023-04-21T05:04:19;98643.69;;;18.96;47.39
66857;BME280;53766;50.280;19.160;2023-04-21T05:06:47;98650.69;;;18.97;47.53
66857;BME280;53766;50.280;19.160;2023-04-21T05:09:15;98641.19;;;18.87;48.06
66857;BME280;53766;50.280;19.160;2023-04-21T05:11:43;98649.41;;;18.79;48.11
66857;BME280;53766;50.280;19.160;2023-04-21T05:14:10;98635.34;;;18.64;48.94
66857;BME280;53766;50.280;19.160;2023-04-21T05:16:38;98642.13;;;18.53;49.34
66857;BME280;53766;50.280;19.160;2023-04-21T05:19:05;98643.09;;;18.45;49.44
66857;BME280;53766;50.280;19.160;2023-04-21T05:21:33;98642.25;;;18.38;49.88
66857;BME280;53766;50.280;19.160;2023-04-21T05:24:00;98632.38;;;18.32;50.15
66857;BME280;53766;50.280;19.160;2023-04-21T05:26:28;98642.63;;;18.28;50.27
66857;BME280;53766;50.280;19.160;2023-04-21T05:28:56;98638.91;;;18.23;50.50
66857;BME280;53766;50.280;19.160;2023-04-21T05:31:24;98642.56;;;18.15;49.50
66857;BME280;53766;50.280;19.160;2023-04-21T05:33:52;98642.91;;;18.05;48.69
66857;BME280;53766;50.280;19.160;2023-04-21T05:36:20;98650.66;;;18.00;48.60
66857;BME280;53766;50.280;19.160;2023-04-21T05:38:47;98645.09;;;17.95;49.09
66857;BME280;53766;50.280;19.160;2023-04-21T05:41:14;98645.88;;;17.89;47.89
66857;BME280;53766;50.280;19.160;2023-04-21T05:43:42;98641.59;;;17.88;48.04
66857;BME280;53766;50.280;19.160;2023-04-21T05:46:10;98646.91;;;17.88;48.12
66857;BME280;53766;50.280;19.160;2023-04-21T05:48:37;98651.22;;;17.89;48.40
66857;BME280;53766;50.280;19.160;2023-04-21T05:51:10;98647.75;;;17.88;48.57
66857;BME280;53766;50.280;19.160;2023-04-21T05:53:38;98650.22;;;17.90;48.58
66857;BME280;53766;50.280;19.160;2023-04-21T05:56:10;98643.03;;;17.91;48.64
66857;BME280;53766;50.280;19.160;2023-04-21T05:58:37;98642.00;;;17.92;48.49
66857;BME280;53766;50.280;19.160;2023-04-21T06:01:05;98642.00;;;17.92;48.48
66857;BME280;53766;50.280;19.160;2023-04-21T06:03:33;98642.84;;;17.92;48.45
66857;BME280;53766;50.280;19.160;2023-04-21T06:06:03;98639.16;;;17.93;48.50
66857;BME280;53766;50.280;19.160;2023-04-21T06:08:31;98633.81;;;17.93;48.52
66857;BME280;53766;50.280;19.160;2023-04-21T06:10:59;98639.16;;;17.93;48.54
66857;BME280;53766;50.280;19.160;2023-04-21T06:13:26;98642.44;;;17.95;48.48
66857;BME280;53766;50.280;19.160;2023-04-21T06:15:54;98643.25;;;17.96;48.54
66857;BME280;53766;50.280;19.160;2023-04-21T06:18:22;98631.78;;;17.95;48.35
66857;BME280;53766;50.280;19.160;2023-04-21T06:20:51;98635.25;;;17.96;48.43
66857;BME280;53766;50.280;19.160;2023-04-21T06:23:20;98630.75;;;17.96;48.36
66857;BME280;53766;50.280;19.160;2023-04-21T06:26:08;98633.41;;;17.96;48.45
66857;BME280;53766;50.280;19.160;2023-04-21T06:28:35;98640.41;;;17.97;48.29
66857;BME280;53766;50.280;19.160;2023-04-21T06:31:03;98636.72;;;17.98;48.38
66857;BME280;53766;50.280;19.160;2023-04-21T06:33:35;98629.34;;;18.00;48.26
66857;BME280;53766;50.280;19.160;2023-04-21T06:36:02;98636.53;;;18.00;48.23
66857;BME280;53766;50.280;19.160;2023-04-21T06:38:30;98634.69;;;18.00;48.41
66857;BME280;53766;50.280;19.160;2023-04-21T06:40:57;98636.34;;;18.01;48.38
66857;BME280;53766;50.280;19.160;2023-04-21T06:43:25;98631.00;;;18.01;48.24
66857;BME280;53766;50.280;19.160;2023-04-21T06:45:52;98627.31;;;18.02;48.37
66857;BME280;53766;50.280;19.160;2023-04-21T06:48:20;98629.97;;;18.02;48.45
66857;BME280;53766;50.280;19.160;2023-04-21T06:50:47;98623.63;;;18.03;48.33
66857;BME280;53766;50.280;19.160;2023-04-21T06:53:15;98628.97;;;18.03;48.49
66857;BME280;53766;50.280;19.160;2023-04-21T06:55:44;98627.94;;;18.04;48.37
66857;BME280;53766;50.280;19.160;2023-04-21T06:58:12;98630.59;;;18.04;48.37
66857;BME280;53766;50.280;19.160;2023-04-21T07:00:40;98629.59;;;18.05;48.42
66857;BME280;53766;50.280;19.160;2023-04-21T07:03:07;98623.22;;;18.06;48.37
66857;BME280;53766;50.280;19.160;2023-04-21T07:05:35;98623.22;;;18.06;48.35
66857;BME280;53766;50.280;19.160;2023-04-21T07:08:02;98626.53;;;18.08;48.24
66857;BME280;53766;50.280;19.160;2023-04-21T07:10:30;98628.19;;;18.09;48.16
66857;BME280;53766;50.280;19.160;2023-04-21T07:12:58;98622.63;;;18.11;48.31
66857;BME280;53766;50.280;19.160;2023-04-21T07:15:25;98623.44;;;18.12;48.06
66857;BME280;53766;50.280;19.160;2023-04-21T07:17:53;98615.47;;;18.12;48.24
66857;BME280;53766;50.280;19.160;2023-04-21T07:20:21;98623.44;;;18.12;48.24
66857;BME280;53766;50.280;19.160;2023-04-21T07:22:48;98617.94;;;18.13;48.26
66857;BME280;53766;50.280;19.160;2023-04-21T07:25:15;98618.75;;;18.14;48.12
66857;BME280;53766;50.280;19.160;2023-04-21T07:27:43;98624.06;;;18.14;48.22
66857;BME280;53766;50.280;19.160;2023-04-21T07:30:11;98622.88;;;18.16;48.18
66857;BME280;53766;50.280;19.160;2023-04-21T07:32:38;98622.88;;;18.16;48.39
66857;BME280;53766;50.280;19.160;2023-04-21T07:35:06;98619.19;;;18.17;48.37
66857;BME280;53766;50.280;19.160;2023-04-21T07:37:34;98620.00;;;18.18;48.13
66857;BME280;53766;50.280;19.160;2023-04-21T07:40:01;98611.00;;;18.19;48.14
66857;BME280;53766;50.280;19.160;2023-04-21T07:42:29;98613.66;;;18.19;48.04
66857;BME280;53766;50.280;19.160;2023-04-21T07:44:57;98612.63;;;18.20;48.29
66857;BME280;53766;50.280;19.160;2023-04-21T07:47:27;98609.97;;;18.20;48.23
66857;BME280;53766;50.280;19.160;2023-04-21T07:49:55;98614.06;;;18.22;48.16
66857;BME280;53766;50.280;19.160;2023-04-21T07:52:22;98606.91;;;18.23;48.19
66857;BME280;53766;50.280;19.160;2023-04-21T07:54:50;98611.22;;;18.24;48.15
66857;BME280;53766;50.280;19.160;2023-04-21T07:57:18;98608.56;;;18.24;48.18
66857;BME280;53766;50.280;19.160;2023-04-21T07:59:45;98607.53;;;18.25;48.18
66857;BME280;53766;50.280;19.160;2023-04-21T08:02:12;98609.81;;;18.28;47.95
66857;BME280;53766;50.280;19.160;2023-04-21T08:04:40;98602.84;;;18.27;47.98
66857;BME280;53766;50.280;19.160;2023-04-21T08:07:08;98609.81;;;18.28;48.04
66857;BME280;53766;50.280;19.160;2023-04-21T08:09:36;98600.78;;;18.29;47.91
66857;BME280;53766;50.280;19.160;2023-04-21T08:12:04;98602.44;;;18.30;47.90
66857;BME280;53766;50.280;19.160;2023-04-21T08:14:31;98597.91;;;18.30;47.85
66857;BME280;53766;50.280;19.160;2023-04-21T08:16:58;98595.06;;;18.32;47.87
66857;BME280;53766;50.280;19.160;2023-04-21T08:19:26;98603.69;;;18.34;47.82
66857;BME280;53766;50.280;19.160;2023-04-21T08:21:54;98605.31;;;18.35;47.69
66857;BME280;53766;50.280;19.160;2023-04-21T08:24:22;98596.31;;;18.36;47.66
66857;BME280;53766;50.280;19.160;2023-04-21T08:26:49;98600.41;;;18.39;47.66
66857;BME280;53766;50.280;19.160;2023-04-21T08:29:17;98590.56;;;18.39;47.83
66857;BME280;53766;50.280;19.160;2023-04-21T08:31:45;98598.56;;;18.39;47.65
66857;BME280;53766;50.280;19.160;2023-04-21T08:34:12;98593.22;;;18.39;47.79
66857;BME280;53766;50.280;19.160;2023-04-21T08:36:40;98594.25;;;18.38;47.76
66857;BME280;53766;50.280;19.160;2023-04-21T08:39:09;98595.28;;;18.37;47.87
66857;BME280;53766;50.280;19.160;2023-04-21T08:41:38;98595.06;;;18.39;47.83
66857;BME280;53766;50.280;19.160;2023-04-21T08:44:07;98588.94;;;18.38;47.66
66857;BME280;53766;50.280;19.160;2023-04-21T08:46:35;98588.94;;;18.38;47.51
66857;BME280;53766;50.280;19.160;2023-04-21T08:49:03;98588.09;;;18.38;47.58
66857;BME280;53766;50.280;19.160;2023-04-21T08:51:31;98594.25;;;18.38;47.65
66857;BME280;53766;50.280;19.160;2023-04-21T08:53:58;98595.91;;;18.39;47.60
66857;BME280;53766;50.280;19.160;2023-04-21T08:56:26;98580.53;;;18.41;47.73
66857;BME280;53766;50.280;19.160;2023-04-21T08:58:54;98585.47;;;18.44;47.43
66857;BME280;53766;50.280;19.160;2023-04-21T09:01:21;98573.75;;;18.45;47.50
66857;BME280;53766;50.280;19.160;2023-04-21T09:03:49;98582.38;;;18.47;47.45
66857;BME280;53766;50.280;19.160;2023-04-21T09:06:16;98576.63;;;18.50;47.29
66857;BME280;53766;50.280;19.160;2023-04-21T09:08:52;98570.28;;;18.52;47.32
66857;BME280;53766;50.280;19.160;2023-04-21T09:11:22;98574.59;;;18.53;47.26
66857;BME280;53766;50.280;19.160;2023-04-21T09:13:50;98561.88;;;18.55;47.33
66857;BME280;53766;50.280;19.160;2023-04-21T09:16:19;98575.03;;;18.56;47.17
66857;BME280;53766;50.280;19.160;2023-04-21T09:18:49;98568.47;;;18.59;47.15
66857;BME280;53766;50.280;19.160;2023-04-21T09:21:17;98570.13;;;18.60;47.17
66857;BME280;53766;50.280;19.160;2023-04-21T09:23:48;98573.41;;;18.62;47.44
66857;BME280;53766;50.280;19.160;2023-04-21T09:26:17;98577.50;;;18.64;47.05
66857;BME280;53766;50.280;19.160;2023-04-21T09:28:47;98572.19;;;18.64;46.99
66857;BME280;53766;50.280;19.160;2023-04-21T09:31:17;98575.03;;;18.63;47.12
66857;BME280;53766;50.280;19.160;2023-04-21T09:33:48;98579.75;;;18.61;47.20
66857;BME280;53766;50.280;19.160;2023-04-21T09:36:26;98570.53;;;18.63;47.16
66857;BME280;53766;50.280;19.160;2023-04-21T09:39:00;98566.84;;;18.64;47.01
66857;BME280;53766;50.280;19.160;2023-04-21T09:41:31;98566.44;;;18.67;46.94
66857;BME280;53766;50.280;19.160;2023-04-21T09:43:59;98562.75;;;18.68;46.85
66857;BME280;53766;50.280;19.160;2023-04-21T09:46:35;98561.50;;;18.71;46.89
66857;BME280;53766;50.280;19.160;2023-04-21T09:49:03;98566.84;;;18.71;46.69
66857;BME280;53766;50.280;19.160;2023-04-21T09:51:32;98565.81;;;18.72;46.96
66857;BME280;53766;50.280;19.160;2023-04-21T09:54:28;98561.72;;;18.69;46.90
66857;BME280;53766;50.280;19.160;2023-04-21T09:57:03;98566.84;;;18.71;46.83
66857;BME280;53766;50.280;19.160;2023-04-21T09:59:36;98563.97;;;18.73;46.80
66857;BME280;53766;50.280;19.160;2023-04-21T10:02:05;98555.75;;;18.74;46.80
66857;BME280;53766;50.280;19.160;2023-04-21T10:04:35;98552.09;;;18.75;46.77
66857;BME280;53766;50.280;19.160;2023-04-21T10:07:03;98553.91;;;18.75;46.65
66857;BME280;53766;50.280;19.160;2023-04-21T10:09:42;98549.41;;;18.75;46.60
66857;BME280;53766;50.280;19.160;2023-04-21T10:12:12;98555.38;;;18.77;46.68
66857;BME280;53766;50.280;19.160;2023-04-21T10:14:40;98552.31;;;18.80;46.64
66857;BME280;53766;50.280;19.160;2023-04-21T10:17:09;98552.94;;;18.82;46.48
66857;BME280;53766;50.280;19.160;2023-04-21T10:19:47;98557.47;;;18.82;46.51
66857;BME280;53766;50.280;19.160;2023-04-21T10:22:25;98553.34;;;18.79;46.67
66857;BME280;53766;50.280;19.160;2023-04-21T10:24:55;98557.03;;;18.78;46.55
66857;BME280;53766;50.280;19.160;2023-04-21T10:27:38;98548.84;;;18.80;46.33
66857;BME280;53766;50.280;19.160;2023-04-21T10:30:23;98547.59;;;18.82;46.16
66857;BME280;53766;50.280;19.160;2023-04-21T10:33:03;98543.50;;;18.80;46.39
66857;BME280;53766;50.280;19.160;2023-04-21T10:38:54;98539.38;;;18.77;46.21
66857;BME280;53766;50.280;19.160;2023-04-21T10:41:29;98541.84;;;18.79;46.14
66857;BME280;53766;50.280;19.160;2023-04-21T10:44:10;98537.34;;;18.79;45.90
66857;BME280;53766;50.280;19.160;2023-04-21T10:46:48;98536.94;;;18.82;45.90
66857;BME280;53766;50.280;19.160;2023-04-21T10:49:27;98535.06;;;18.83;45.75
66857;BME280;53766;50.280;19.160;2023-04-21T10:57:18;98530.78;;;18.88;45.21
66857;BME280;53766;50.280;19.160;2023-04-21T10:59:46;98516.81;;;18.86;45.26
66857;BME280;53766;50.280;19.160;2023-04-21T11:02:17;98520.09;;;18.88;45.08
66857;BME280;53766;50.280;19.160;2023-04-21T11:04:49;98522.16;;;18.86;45.34
66857;BME280;53766;50.280;19.160;2023-04-21T11:07:19;98519.88;;;18.83;45.50
66857;BME280;53766;50.280;19.160;2023-04-21T11:09:49;98517.22;;;18.83;45.31
66857;BME280;53766;50.280;19.160;2023-04-21T11:12:26;98517.22;;;18.83;45.18
66857;BME280;53766;50.280;19.160;2023-04-21T11:14:55;98515.59;;;18.82;45.11
66857;BME280;53766;50.280;19.160;2023-04-21T11:17:23;98514.75;;;18.82;45.01
66857;BME280;53766;50.280;19.160;2023-04-21T11:19:51;98516.81;;;18.80;44.93
66857;BME280;53766;50.280;19.160;2023-04-21T11:22:23;98520.28;;;18.80;44.92
66857;BME280;53766;50.280;19.160;2023-04-21T11:24:53;98517.81;;;18.79;44.83
66857;BME280;53766;50.280;19.160;2023-04-21T11:27:22;98522.53;;;18.83;44.60
66857;BME280;53766;50.280;19.160;2023-04-21T11:29:49;98500.81;;;18.86;44.70
66857;BME280;53766;50.280;19.160;2023-04-21T11:32:18;98505.72;;;18.89;44.89
66857;BME280;53766;50.280;19.160;2023-04-21T11:34:45;98504.47;;;18.85;44.60
66857;BME280;53766;50.280;19.160;2023-04-21T11:37:14;98510.06;;;18.84;44.70
66857;BME280;53766;50.280;19.160;2023-04-21T11:39:43;98504.91;;;18.82;44.51
66857;BME280;53766;50.280;19.160;2023-04-21T11:42:10;98504.91;;;18.82;44.37
66857;BME280;53766;50.280;19.160;2023-04-21T11:44:40;98506.16;;;18.86;44.31
66857;BME280;53766;50.280;19.160;2023-04-21T11:47:18;98504.09;;;18.88;44.35
66857;BME280;53766;50.280;19.160;2023-04-21T11:49:49;98502.03;;;18.90;44.40
66857;BME280;53766;50.280;19.160;2023-04-21T11:52:29;98497.53;;;18.91;44.33
66857;BME280;53766;50.280;19.160;2023-04-21T11:55:21;98504.28;;;18.94;44.04
66857;BME280;53766;50.280;19.160;2023-04-21T11:57:49;98498.56;;;18.97;44.18
66857;BME280;53766;50.280;19.160;2023-04-21T12:00:17;98496.91;;;18.96;44.08
66857;BME280;53766;50.280;19.160;2023-04-21T12:02:56;98491.13;;;18.92;44.21
66857;BME280;53766;50.280;19.160;2023-04-21T12:05:23;98491.38;;;18.90;44.10
66857;BME280;53766;50.280;19.160;2023-04-21T12:07:54;98488.69;;;18.90;44.20
66857;BME280;53766;50.280;19.160;2023-04-21T12:10:22;98483.56;;;18.89;43.92
66857;BME280;53766;50.280;19.160;2023-04-21T12:12:49;98489.72;;;18.89;44.03
66857;BME280;53766;50.280;19.160;2023-04-21T12:15:19;98486.22;;;18.89;43.86
66857;BME280;53766;50.280;19.160;2023-04-21T12:17:50;98471.66;;;18.91;44.02
66857;BME280;53766;50.280;19.160;2023-04-21T12:20:19;98480.28;;;18.94;43.91
66857;BME280;53766;50.280;19.160;2023-04-21T12:22:48;98479.03;;;18.96;44.41
66857;BME280;53766;50.280;19.160;2023-04-21T12:25:16;98476.16;;;18.98;44.17
66857;BME280;53766;50.280;19.160;2023-04-21T12:27:51;98476.16;;;18.98;44.07
66857;BME280;53766;50.280;19.160;2023-04-21T12:30:19;98468.78;;;19.00;44.36
66857;BME280;53766;50.280;19.160;2023-04-21T12:32:48;98463.22;;;19.01;44.13
66857;BME280;53766;50.280;19.160;2023-04-21T12:35:15;98469.19;;;19.03;44.33
66857;BME280;53766;50.280;19.160;2023-04-21T12:37:43;98464.66;;;19.04;44.46
66857;BME280;53766;50.280;19.160;2023-04-21T12:40:11;98459.94;;;19.06;44.37
66857;BME280;53766;50.280;19.160;2023-04-21T12:42:38;98459.72;;;19.07;44.12
66857;BME280;53766;50.280;19.160;2023-04-21T12:45:06;98443.50;;;19.09;44.55
66857;BME280;53766;50.280;19.160;2023-04-21T12:47:35;98440.81;;;19.09;44.66
66857;BME280;53766;50.280;19.160;2023-04-21T12:50:03;98449.66;;;19.09;44.53
66857;BME280;53766;50.280;19.160;2023-04-21T12:52:31;98453.78;;;19.05;44.72
66857;BME280;53766;50.280;19.160;2023-04-21T12:54:58;98456.66;;;19.04;44.41
66857;BME280;53766;50.280;19.160;2023-04-21T12:57:26;98460.13;;;19.04;44.60
66857;BME280;53766;50.280;19.160;2023-04-21T12:59:54;98457.28;;;19.06;44.51
66857;BME280;53766;50.280;19.160;2023-04-21T13:02:22;98452.31;;;19.09;44.62
66857;BME280;53766;50.280;19.160;2023-04-21T13:04:49;98452.13;;;19.11;44.65
66857;BME280;53766;50.280;19.160;2023-04-21T13:07:17;98445.78;;;19.12;44.63
66857;BME280;53766;50.280;19.160;2023-04-21T13:09:48;98444.72;;;19.13;44.66